sensor_id;sensor_type;location;lat;lon;timestamp;P1;durP1;ratioP1;P2;durP2;ratioP2
16460;SDS011;8341;42.048;24.650;2023-07-22T00:01:04;9.00;;;7.43;;
16460;SDS011;8341;42.048;24.650;2023-07-22T00:03:31;9.05;;;7.80;;
16460;SDS011;8341;42.048;24.650;2023-07-22T00:06:04;8.38;;;7.50;;
16460;SDS011;8341;42.048;24.650;2023-07-22T00:08:32;9.85;;;7.50;;
16460;SDS011;8341;42.048;24.650;2023-07-22T00:10:59;8.02;;;7.22;;
16460;SDS011;8341;42.048;24.650;2023-07-22T00:13:27;8.82;;;7.68;;
16460;SDS011;8341;42.048;24.650;2023-07-22T00:15:54;10.32;;;7.85;;
16460;SDS011;8341;42.048;24.650;2023-07-22T00:18:22;12.40;;;7.80;;
16460;SDS011;8341;42.048;24.650;2023-07-22T00:20:49;8.30;;;7.22;;
16460;SDS011;8341;42.048;24.650;2023-07-22T00:23:16;9.80;;;7.80;;
16460;SDS011;8341;42.048;24.650;2023-07-22T00:25:43;7.93;;;7.13;;
16460;SDS011;8341;42.048;24.650;2023-07-22T00:28:10;11.15;;;7.93;;
16460;SDS011;8341;42.048;24.650;2023-07-22T00:30:38;14.27;;;8.20;;
16460;SDS011;8341;42.048;24.650;2023-07-22T00:33:05;10.63;;;8.23;;
16460;SDS011;8341;42.048;24.650;2023-07-22T00:35:32;9.05;;;7.82;;
16460;SDS011;8341;42.048;24.650;2023-07-22T00:37:58;13.77;;;8.25;;
16460;SDS011;8341;42.048;24.650;2023-07-22T00:40:26;12.23;;;8.15;;
16460;SDS011;8341;42.048;24.650;2023-07-22T00:42:53;8.32;;;7.50;;
16460;SDS011;8341;42.048;24.650;2023-07-22T00:45:19;10.88;;;8.10;;
16460;SDS011;8341;42.048;24.650;2023-07-22T00:47:48;10.02;;;7.97;;
16460;SDS011;8341;42.048;24.650;2023-07-22T00:50:15;9.38;;;7.80;;
16460;SDS011;8341;42.048;24.650;2023-07-22T00:52:42;10.65;;;7.70;;
16460;SDS011;8341;42.048;24.650;2023-07-22T00:55:09;9.93;;;8.02;;
16460;SDS011;8341;42.048;24.650;2023-07-22T00:57:36;9.55;;;7.72;;
16460;SDS011;8341;42.048;24.650;2023-07-22T01:00:03;11.55;;;7.85;;
16460;SDS011;8341;42.048;24.650;2023-07-22T01:02:32;8.98;;;7.75;;
16460;SDS011;8341;42.048;24.650;2023-07-22T01:05:01;11.05;;;7.35;;
16460;SDS011;8341;42.048;24.650;2023-07-22T01:07:28;10.07;;;7.80;;
16460;SDS011;8341;42.048;24.650;2023-07-22T01:09:55;10.70;;;8.32;;
16460;SDS011;8341;42.048;24.650;2023-07-22T01:12:23;8.98;;;8.02;;
16460;SDS011;8341;42.048;24.650;2023-07-22T01:14:50;10.10;;;7.93;;
16460;SDS011;8341;42.048;24.650;2023-07-22T01:17:18;10.13;;;8.82;;
16460;SDS011;8341;42.048;24.650;2023-07-22T01:19:45;10.25;;;8.27;;
16460;SDS011;8341;42.048;24.650;2023-07-22T01:22:14;8.10;;;7.30;;
16460;SDS011;8341;42.048;24.650;2023-07-22T01:24:44;10.32;;;8.48;;
16460;SDS011;8341;42.048;24.650;2023-07-22T01:27:11;12.88;;;8.73;;
16460;SDS011;8341;42.048;24.650;2023-07-22T01:29:39;9.68;;;8.05;;
16460;SDS011;8341;42.048;24.650;2023-07-22T01:32:06;11.77;;;7.93;;
16460;SDS011;8341;42.048;24.650;2023-07-22T01:34:34;10.90;;;8.82;;
16460;SDS011;8341;42.048;24.650;2023-07-22T01:37:01;14.23;;;8.63;;
16460;SDS011;8341;42.048;24.650;2023-07-22T01:39:29;10.73;;;8.00;;
16460;SDS011;8341;42.048;24.650;2023-07-22T01:41:57;10.10;;;8.32;;
16460;SDS011;8341;42.048;24.650;2023-07-22T01:44:24;11.15;;;8.00;;
16460;SDS011;8341;42.048;24.650;2023-07-22T01:46:51;11.07;;;8.40;;
16460;SDS011;8341;42.048;24.650;2023-07-22T01:49:18;10.63;;;8.65;;
16460;SDS011;8341;42.048;24.650;2023-07-22T01:51:45;8.55;;;7.65;;
16460;SDS011;8341;42.048;24.650;2023-07-22T01:54:11;11.02;;;8.50;;
16460;SDS011;8341;42.048;24.650;2023-07-22T01:56:38;10.43;;;8.00;;
16460;SDS011;8341;42.048;24.650;2023-07-22T01:59:07;12.60;;;8.23;;
16460;SDS011;8341;42.048;24.650;2023-07-22T02:01:34;9.13;;;7.82;;
16460;SDS011;8341;42.048;24.650;2023-07-22T02:04:01;12.60;;;8.38;;
16460;SDS011;8341;42.048;24.650;2023-07-22T02:06:28;9.38;;;7.80;;
16460;SDS011;8341;42.048;24.650;2023-07-22T02:08:55;9.10;;;8.18;;
16460;SDS011;8341;42.048;24.650;2023-07-22T02:11:22;11.93;;;8.05;;
16460;SDS011;8341;42.048;24.650;2023-07-22T02:13:49;8.40;;;7.63;;
16460;SDS011;8341;42.048;24.650;2023-07-22T02:16:17;11.10;;;8.45;;
16460;SDS011;8341;42.048;24.650;2023-07-22T02:18:44;9.02;;;8.05;;
16460;SDS011;8341;42.048;24.650;2023-07-22T02:21:10;11.10;;;8.48;;
16460;SDS011;8341;42.048;24.650;2023-07-22T02:23:37;9.38;;;8.30;;
16460;SDS011;8341;42.048;24.650;2023-07-22T02:26:04;12.27;;;8.27;;
16460;SDS011;8341;42.048;24.650;2023-07-22T02:28:31;11.32;;;8.27;;
16460;SDS011;8341;42.048;24.650;2023-07-22T02:31:00;11.38;;;8.48;;
16460;SDS011;8341;42.048;24.650;2023-07-22T02:33:33;11.55;;;8.38;;
16460;SDS011;8341;42.048;24.650;2023-07-22T02:35:59;10.02;;;7.90;;
16460;SDS011;8341;42.048;24.650;2023-07-22T02:38:26;9.70;;;8.45;;
16460;SDS011;8341;42.048;24.650;2023-07-22T02:40:53;9.38;;;8.18;;
16460;SDS011;8341;42.048;24.650;2023-07-22T02:43:20;11.57;;;8.05;;
16460;SDS011;8341;42.048;24.650;2023-07-22T02:45:47;11.70;;;8.15;;
16460;SDS011;8341;42.048;24.650;2023-07-22T02:48:14;10.48;;;8.13;;
16460;SDS011;8341;42.048;24.650;2023-07-22T02:50:42;11.57;;;8.35;;
16460;SDS011;8341;42.048;24.650;2023-07-22T02:53:09;12.43;;;8.57;;
16460;SDS011;8341;42.048;24.650;2023-07-22T02:55:35;12.30;;;8.15;;
16460;SDS011;8341;42.048;24.650;2023-07-22T02:58:02;14.32;;;8.32;;
16460;SDS011;8341;42.048;24.650;2023-07-22T03:00:30;12.70;;;8.10;;
16460;SDS011;8341;42.048;24.650;2023-07-22T03:02:57;9.82;;;7.60;;
16460;SDS011;8341;42.048;24.650;2023-07-22T03:05:26;13.13;;;8.65;;
16460;SDS011;8341;42.048;24.650;2023-07-22T03:07:54;10.20;;;8.73;;
16460;SDS011;8341;42.048;24.650;2023-07-22T03:10:21;9.65;;;8.48;;
16460;SDS011;8341;42.048;24.650;2023-07-22T03:12:50;9.63;;;8.63;;
16460;SDS011;8341;42.048;24.650;2023-07-22T03:15:20;11.98;;;9.27;;
16460;SDS011;8341;42.048;24.650;2023-07-22T03:17:47;9.48;;;8.52;;
16460;SDS011;8341;42.048;24.650;2023-07-22T03:20:14;11.07;;;8.73;;
16460;SDS011;8341;42.048;24.650;2023-07-22T03:22:42;9.85;;;8.23;;
16460;SDS011;8341;42.048;24.650;2023-07-22T03:25:10;11.80;;;8.35;;
16460;SDS011;8341;42.048;24.650;2023-07-22T03:27:37;11.35;;;8.65;;
16460;SDS011;8341;42.048;24.650;2023-07-22T03:30:05;14.35;;;8.52;;
16460;SDS011;8341;42.048;24.650;2023-07-22T03:32:35;12.02;;;8.57;;
16460;SDS011;8341;42.048;24.650;2023-07-22T03:35:02;9.57;;;8.32;;
16460;SDS011;8341;42.048;24.650;2023-07-22T03:37:29;10.45;;;9.02;;
16460;SDS011;8341;42.048;24.650;2023-07-22T03:39:56;12.18;;;8.75;;
16460;SDS011;8341;42.048;24.650;2023-07-22T03:42:25;14.77;;;8.90;;
16460;SDS011;8341;42.048;24.650;2023-07-22T03:44:51;10.30;;;8.55;;
16460;SDS011;8341;42.048;24.650;2023-07-22T03:47:19;11.65;;;8.95;;
16460;SDS011;8341;42.048;24.650;2023-07-22T03:49:46;11.48;;;9.15;;
16460;SDS011;8341;42.048;24.650;2023-07-22T03:52:12;16.25;;;14.32;;
16460;SDS011;8341;42.048;24.650;2023-07-22T03:54:43;18.00;;;15.25;;
16460;SDS011;8341;42.048;24.650;2023-07-22T03:57:10;12.20;;;10.60;;
16460;SDS011;8341;42.048;24.650;2023-07-22T03:59:38;10.50;;;9.27;;
16460;SDS011;8341;42.048;24.650;2023-07-22T04:02:05;14.38;;;8.82;;
16460;SDS011;8341;42.048;24.650;2023-07-22T04:04:32;9.43;;;8.52;;
16460;SDS011;8341;42.048;24.650;2023-07-22T04:06:59;11.23;;;8.93;;
16460;SDS011;8341;42.048;24.650;2023-07-22T04:09:26;10.50;;;9.35;;
16460;SDS011;8341;42.048;24.650;2023-07-22T04:11:53;11.00;;;9.27;;
16460;SDS011;8341;42.048;24.650;2023-07-22T04:14:20;12.77;;;8.68;;
16460;SDS011;8341;42.048;24.650;2023-07-22T04:16:48;10.38;;;9.07;;
16460;SDS011;8341;42.048;24.650;2023-07-22T04:19:15;10.57;;;9.48;;
16460;SDS011;8341;42.048;24.650;2023-07-22T04:21:42;14.15;;;10.02;;
16460;SDS011;8341;42.048;24.650;2023-07-22T04:24:09;19.40;;;15.40;;
16460;SDS011;8341;42.048;24.650;2023-07-22T04:26:36;13.45;;;10.73;;
16460;SDS011;8341;42.048;24.650;2023-07-22T04:29:03;16.42;;;11.27;;
16460;SDS011;8341;42.048;24.650;2023-07-22T04:31:30;14.50;;;9.90;;
16460;SDS011;8341;42.048;24.650;2023-07-22T04:33:58;11.52;;;9.45;;
16460;SDS011;8341;42.048;24.650;2023-07-22T04:36:25;10.45;;;9.23;;
16460;SDS011;8341;42.048;24.650;2023-07-22T04:38:52;15.98;;;9.40;;
16460;SDS011;8341;42.048;24.650;2023-07-22T04:41:19;12.93;;;9.40;;
16460;SDS011;8341;42.048;24.650;2023-07-22T04:43:46;16.75;;;9.23;;
16460;SDS011;8341;42.048;24.650;2023-07-22T04:46:13;15.40;;;8.98;;
16460;SDS011;8341;42.048;24.650;2023-07-22T04:48:40;12.93;;;9.30;;
16460;SDS011;8341;42.048;24.650;2023-07-22T04:51:08;13.38;;;11.05;;
16460;SDS011;8341;42.048;24.650;2023-07-22T04:53:35;13.85;;;11.23;;
16460;SDS011;8341;42.048;24.650;2023-07-22T04:56:02;15.23;;;13.02;;
16460;SDS011;8341;42.048;24.650;2023-07-22T04:58:29;8.38;;;7.57;;
16460;SDS011;8341;42.048;24.650;2023-07-22T05:00:57;9.25;;;7.75;;
16460;SDS011;8341;42.048;24.650;2023-07-22T05:03:24;15.82;;;9.02;;
16460;SDS011;8341;42.048;24.650;2023-07-22T05:05:51;12.18;;;9.23;;
16460;SDS011;8341;42.048;24.650;2023-07-22T05:08:19;10.13;;;9.02;;
16460;SDS011;8341;42.048;24.650;2023-07-22T05:10:46;10.82;;;8.32;;
16460;SDS011;8341;42.048;24.650;2023-07-22T05:13:13;11.15;;;8.35;;
16460;SDS011;8341;42.048;24.650;2023-07-22T05:15:40;10.38;;;7.85;;
16460;SDS011;8341;42.048;24.650;2023-07-22T05:18:07;18.58;;;8.32;;
16460;SDS011;8341;42.048;24.650;2023-07-22T05:20:33;10.05;;;7.75;;
16460;SDS011;8341;42.048;24.650;2023-07-22T05:23:00;13.05;;;11.43;;
16460;SDS011;8341;42.048;24.650;2023-07-22T05:25:28;11.05;;;7.55;;
16460;SDS011;8341;42.048;24.650;2023-07-22T05:27:55;10.00;;;7.70;;
16460;SDS011;8341;42.048;24.650;2023-07-22T05:30:22;10.82;;;8.23;;
16460;SDS011;8341;42.048;24.650;2023-07-22T05:32:51;10.27;;;7.38;;
16460;SDS011;8341;42.048;24.650;2023-07-22T05:35:18;8.75;;;6.93;;
16460;SDS011;8341;42.048;24.650;2023-07-22T05:37:45;9.65;;;7.22;;
16460;SDS011;8341;42.048;24.650;2023-07-22T05:40:11;9.90;;;7.70;;
16460;SDS011;8341;42.048;24.650;2023-07-22T05:42:40;9.63;;;6.90;;
16460;SDS011;8341;42.048;24.650;2023-07-22T05:45:08;7.82;;;7.03;;
16460;SDS011;8341;42.048;24.650;2023-07-22T05:47:38;9.30;;;6.90;;
16460;SDS011;8341;42.048;24.650;2023-07-22T05:50:05;11.48;;;6.72;;
16460;SDS011;8341;42.048;24.650;2023-07-22T05:52:33;9.57;;;7.30;;
16460;SDS011;8341;42.048;24.650;2023-07-22T05:55:00;10.50;;;7.20;;
16460;SDS011;8341;42.048;24.650;2023-07-22T05:57:27;10.23;;;7.25;;
16460;SDS011;8341;42.048;24.650;2023-07-22T05:59:55;10.65;;;6.95;;
16460;SDS011;8341;42.048;24.650;2023-07-22T06:02:22;7.88;;;6.88;;
16460;SDS011;8341;42.048;24.650;2023-07-22T06:04:49;8.80;;;7.25;;
16460;SDS011;8341;42.048;24.650;2023-07-22T06:07:15;8.13;;;7.32;;
16460;SDS011;8341;42.048;24.650;2023-07-22T06:09:43;10.65;;;7.65;;
16460;SDS011;8341;42.048;24.650;2023-07-22T06:12:10;15.70;;;8.52;;
16460;SDS011;8341;42.048;24.650;2023-07-22T06:14:38;28.05;;;11.57;;
16460;SDS011;8341;42.048;24.650;2023-07-22T06:17:06;13.20;;;7.80;;
16460;SDS011;8341;42.048;24.650;2023-07-22T06:19:33;9.57;;;7.40;;
16460;SDS011;8341;42.048;24.650;2023-07-22T06:22:00;9.02;;;7.45;;
16460;SDS011;8341;42.048;24.650;2023-07-22T06:24:26;9.32;;;7.40;;
16460;SDS011;8341;42.048;24.650;2023-07-22T06:26:53;11.25;;;7.32;;
16460;SDS011;8341;42.048;24.650;2023-07-22T06:29:20;10.15;;;6.80;;
16460;SDS011;8341;42.048;24.650;2023-07-22T06:31:47;12.82;;;7.22;;
16460;SDS011;8341;42.048;24.650;2023-07-22T06:34:15;10.88;;;7.40;;
16460;SDS011;8341;42.048;24.650;2023-07-22T06:36:42;8.70;;;7.68;;
16460;SDS011;8341;42.048;24.650;2023-07-22T06:39:09;10.20;;;7.72;;
16460;SDS011;8341;42.048;24.650;2023-07-22T06:41:36;8.98;;;7.35;;
16460;SDS011;8341;42.048;24.650;2023-07-22T06:44:03;9.70;;;7.22;;
16460;SDS011;8341;42.048;24.650;2023-07-22T06:46:30;11.45;;;7.53;;
16460;SDS011;8341;42.048;24.650;2023-07-22T06:48:57;12.20;;;7.28;;
16460;SDS011;8341;42.048;24.650;2023-07-22T06:51:25;8.30;;;7.40;;
16460;SDS011;8341;42.048;24.650;2023-07-22T06:53:52;10.75;;;7.07;;
16460;SDS011;8341;42.048;24.650;2023-07-22T06:56:18;8.82;;;7.50;;
16460;SDS011;8341;42.048;24.650;2023-07-22T06:58:45;8.85;;;7.25;;
16460;SDS011;8341;42.048;24.650;2023-07-22T07:01:12;9.68;;;7.35;;
16460;SDS011;8341;42.048;24.650;2023-07-22T07:03:39;9.88;;;7.10;;
16460;SDS011;8341;42.048;24.650;2023-07-22T07:06:05;9.48;;;7.00;;
16460;SDS011;8341;42.048;24.650;2023-07-22T07:08:34;9.05;;;7.05;;
16460;SDS011;8341;42.048;24.650;2023-07-22T07:11:02;9.15;;;7.57;;
16460;SDS011;8341;42.048;24.650;2023-07-22T07:13:29;7.30;;;6.53;;
16460;SDS011;8341;42.048;24.650;2023-07-22T07:15:55;8.90;;;7.03;;
16460;SDS011;8341;42.048;24.650;2023-07-22T07:18:22;9.50;;;7.20;;
16460;SDS011;8341;42.048;24.650;2023-07-22T07:20:49;14.43;;;7.57;;
16460;SDS011;8341;42.048;24.650;2023-07-22T07:23:16;8.82;;;7.45;;
16460;SDS011;8341;42.048;24.650;2023-07-22T07:25:44;12.15;;;8.05;;
16460;SDS011;8341;42.048;24.650;2023-07-22T07:28:11;11.30;;;7.63;;
16460;SDS011;8341;42.048;24.650;2023-07-22T07:30:39;10.27;;;7.65;;
16460;SDS011;8341;42.048;24.650;2023-07-22T07:33:06;9.70;;;8.15;;
16460;SDS011;8341;42.048;24.650;2023-07-22T07:35:33;13.90;;;7.70;;
16460;SDS011;8341;42.048;24.650;2023-07-22T07:38:00;13.25;;;7.93;;
16460;SDS011;8341;42.048;24.650;2023-07-22T07:40:26;10.93;;;7.90;;
16460;SDS011;8341;42.048;24.650;2023-07-22T07:42:55;11.57;;;7.47;;
16460;SDS011;8341;42.048;24.650;2023-07-22T07:45:21;14.05;;;8.75;;
16460;SDS011;8341;42.048;24.650;2023-07-22T07:47:48;10.70;;;7.95;;
16460;SDS011;8341;42.048;24.650;2023-07-22T07:50:16;9.88;;;7.85;;
16460;SDS011;8341;42.048;24.650;2023-07-22T07:52:42;9.38;;;8.30;;
16460;SDS011;8341;42.048;24.650;2023-07-22T07:55:09;11.18;;;8.02;;
16460;SDS011;8341;42.048;24.650;2023-07-22T07:57:36;10.75;;;7.97;;
16460;SDS011;8341;42.048;24.650;2023-07-22T08:00:05;9.10;;;7.93;;
16460;SDS011;8341;42.048;24.650;2023-07-22T08:02:34;11.57;;;8.50;;
16460;SDS011;8341;42.048;24.650;2023-07-22T08:05:01;9.25;;;7.85;;
16460;SDS011;8341;42.048;24.650;2023-07-22T08:07:28;11.02;;;8.05;;
16460;SDS011;8341;42.048;24.650;2023-07-22T08:09:55;10.10;;;8.45;;
16460;SDS011;8341;42.048;24.650;2023-07-22T08:12:23;11.27;;;7.70;;
16460;SDS011;8341;42.048;24.650;2023-07-22T08:14:51;16.02;;;8.55;;
16460;SDS011;8341;42.048;24.650;2023-07-22T08:17:20;11.15;;;8.10;;
16460;SDS011;8341;42.048;24.650;2023-07-22T08:19:46;12.55;;;8.60;;
16460;SDS011;8341;42.048;24.650;2023-07-22T08:22:14;10.75;;;7.85;;
16460;SDS011;8341;42.048;24.650;2023-07-22T08:24:41;11.98;;;8.60;;
16460;SDS011;8341;42.048;24.650;2023-07-22T08:27:08;11.00;;;8.05;;
16460;SDS011;8341;42.048;24.650;2023-07-22T08:29:35;12.38;;;8.68;;
16460;SDS011;8341;42.048;24.650;2023-07-22T08:32:02;11.68;;;8.45;;
16460;SDS011;8341;42.048;24.650;2023-07-22T08:34:31;12.18;;;7.97;;
16460;SDS011;8341;42.048;24.650;2023-07-22T08:36:58;9.18;;;8.20;;
16460;SDS011;8341;42.048;24.650;2023-07-22T08:39:24;13.15;;;8.15;;
16460;SDS011;8341;42.048;24.650;2023-07-22T08:41:51;10.63;;;7.93;;
16460;SDS011;8341;42.048;24.650;2023-07-22T08:44:21;13.38;;;8.25;;
16460;SDS011;8341;42.048;24.650;2023-07-22T08:46:51;9.18;;;8.18;;
16460;SDS011;8341;42.048;24.650;2023-07-22T08:49:22;13.10;;;8.77;;
16460;SDS011;8341;42.048;24.650;2023-07-22T08:51:51;11.82;;;8.57;;
16460;SDS011;8341;42.048;24.650;2023-07-22T08:54:19;11.75;;;8.27;;
16460;SDS011;8341;42.048;24.650;2023-07-22T08:56:47;13.00;;;8.82;;
16460;SDS011;8341;42.048;24.650;2023-07-22T08:59:15;14.02;;;8.20;;
16460;SDS011;8341;42.048;24.650;2023-07-22T09:01:43;12.40;;;8.48;;
16460;SDS011;8341;42.048;24.650;2023-07-22T09:04:11;9.55;;;8.55;;
16460;SDS011;8341;42.048;24.650;2023-07-22T09:06:38;11.45;;;8.20;;
16460;SDS011;8341;42.048;24.650;2023-07-22T09:09:07;10.23;;;8.00;;
16460;SDS011;8341;42.048;24.650;2023-07-22T09:11:37;12.45;;;8.13;;
16460;SDS011;8341;42.048;24.650;2023-07-22T09:14:04;13.27;;;8.35;;
16460;SDS011;8341;42.048;24.650;2023-07-22T09:16:31;10.05;;;8.40;;
16460;SDS011;8341;42.048;24.650;2023-07-22T09:18:58;9.48;;;8.27;;
16460;SDS011;8341;42.048;24.650;2023-07-22T09:21:25;10.48;;;8.02;;
16460;SDS011;8341;42.048;24.650;2023-07-22T09:23:53;11.27;;;8.70;;
16460;SDS011;8341;42.048;24.650;2023-07-22T09:26:21;10.05;;;8.48;;
16460;SDS011;8341;42.048;24.650;2023-07-22T09:28:52;11.65;;;7.78;;
16460;SDS011;8341;42.048;24.650;2023-07-22T09:31:20;13.23;;;8.57;;
16460;SDS011;8341;42.048;24.650;2023-07-22T09:33:48;11.63;;;8.52;;
16460;SDS011;8341;42.048;24.650;2023-07-22T09:36:15;12.20;;;8.77;;
16460;SDS011;8341;42.048;24.650;2023-07-22T09:38:43;10.48;;;8.32;;
16460;SDS011;8341;42.048;24.650;2023-07-22T09:41:09;11.27;;;8.13;;
16460;SDS011;8341;42.048;24.650;2023-07-22T09:43:38;13.25;;;8.18;;
16460;SDS011;8341;42.048;24.650;2023-07-22T09:46:06;10.40;;;8.18;;
16460;SDS011;8341;42.048;24.650;2023-07-22T09:48:40;11.77;;;8.32;;
16460;SDS011;8341;42.048;24.650;2023-07-22T09:51:11;9.48;;;8.20;;
16460;SDS011;8341;42.048;24.650;2023-07-22T09:53:39;10.52;;;8.38;;
16460;SDS011;8341;42.048;24.650;2023-07-22T09:56:10;14.68;;;8.35;;
16460;SDS011;8341;42.048;24.650;2023-07-22T09:58:39;10.63;;;8.27;;
16460;SDS011;8341;42.048;24.650;2023-07-22T10:01:06;13.93;;;8.63;;
16460;SDS011;8341;42.048;24.650;2023-07-22T10:03:34;8.85;;;7.93;;
16460;SDS011;8341;42.048;24.650;2023-07-22T10:06:05;14.38;;;8.35;;
16460;SDS011;8341;42.048;24.650;2023-07-22T10:08:34;10.18;;;7.82;;
16460;SDS011;8341;42.048;24.650;2023-07-22T10:11:03;14.18;;;9.10;;
16460;SDS011;8341;42.048;24.650;2023-07-22T10:13:33;11.32;;;8.40;;
16460;SDS011;8341;42.048;24.650;2023-07-22T10:16:02;9.82;;;7.95;;
16460;SDS011;8341;42.048;24.650;2023-07-22T10:18:29;12.93;;;8.20;;
16460;SDS011;8341;42.048;24.650;2023-07-22T10:20:58;10.93;;;8.55;;
16460;SDS011;8341;42.048;24.650;2023-07-22T10:23:26;12.50;;;7.85;;
16460;SDS011;8341;42.048;24.650;2023-07-22T10:25:54;11.98;;;8.15;;
16460;SDS011;8341;42.048;24.650;2023-07-22T10:28:22;9.23;;;7.78;;
16460;SDS011;8341;42.048;24.650;2023-07-22T10:30:49;15.57;;;8.90;;
16460;SDS011;8341;42.048;24.650;2023-07-22T10:33:17;11.98;;;7.72;;
16460;SDS011;8341;42.048;24.650;2023-07-22T10:36:00;10.75;;;7.80;;
16460;SDS011;8341;42.048;24.650;2023-07-22T10:38:29;13.77;;;7.90;;
16460;SDS011;8341;42.048;24.650;2023-07-22T10:40:57;13.68;;;8.00;;
16460;SDS011;8341;42.048;24.650;2023-07-22T10:43:24;11.90;;;8.25;;
16460;SDS011;8341;42.048;24.650;2023-07-22T10:45:54;14.23;;;8.15;;
16460;SDS011;8341;42.048;24.650;2023-07-22T10:48:23;11.38;;;6.93;;
16460;SDS011;8341;42.048;24.650;2023-07-22T10:50:53;14.35;;;8.27;;
16460;SDS011;8341;42.048;24.650;2023-07-22T10:53:28;15.88;;;7.97;;
16460;SDS011;8341;42.048;24.650;2023-07-22T10:56:02;14.25;;;7.88;;
16460;SDS011;8341;42.048;24.650;2023-07-22T10:58:33;12.98;;;7.72;;
16460;SDS011;8341;42.048;24.650;2023-07-22T11:01:21;14.65;;;7.80;;
16460;SDS011;8341;42.048;24.650;2023-07-22T11:04:08;15.52;;;7.75;;
16460;SDS011;8341;42.048;24.650;2023-07-22T11:06:51;13.02;;;6.80;;
16460;SDS011;8341;42.048;24.650;2023-07-22T11:09:36;13.38;;;7.32;;
16460;SDS011;8341;42.048;24.650;2023-07-22T11:12:09;14.27;;;7.65;;
16460;SDS011;8341;42.048;24.650;2023-07-22T11:14:45;14.98;;;7.40;;
16460;SDS011;8341;42.048;24.650;2023-07-22T11:17:13;17.83;;;7.85;;
16460;SDS011;8341;42.048;24.650;2023-07-22T11:19:42;15.38;;;7.30;;
16460;SDS011;8341;42.048;24.650;2023-07-22T11:22:10;13.85;;;7.20;;
16460;SDS011;8341;42.048;24.650;2023-07-22T11:24:37;13.10;;;7.13;;
16460;SDS011;8341;42.048;24.650;2023-07-22T11:27:04;13.18;;;7.38;;
16460;SDS011;8341;42.048;24.650;2023-07-22T11:29:33;73.75;;;10.80;;
16460;SDS011;8341;42.048;24.650;2023-07-22T11:32:01;13.95;;;7.40;;
16460;SDS011;8341;42.048;24.650;2023-07-22T11:34:29;16.17;;;8.07;;
16460;SDS011;8341;42.048;24.650;2023-07-22T11:36:57;15.45;;;7.25;;
16460;SDS011;8341;42.048;24.650;2023-07-22T11:39:24;13.02;;;8.18;;
16460;SDS011;8341;42.048;24.650;2023-07-22T11:41:52;11.85;;;7.55;;
16460;SDS011;8341;42.048;24.650;2023-07-22T11:44:20;20.02;;;8.43;;
16460;SDS011;8341;42.048;24.650;2023-07-22T11:46:48;17.02;;;8.07;;
16460;SDS011;8341;42.048;24.650;2023-07-22T11:49:21;14.80;;;7.57;;
16460;SDS011;8341;42.048;24.650;2023-07-22T11:51:53;14.43;;;8.35;;
16460;SDS011;8341;42.048;24.650;2023-07-22T11:54:22;17.65;;;7.70;;
16460;SDS011;8341;42.048;24.650;2023-07-22T11:56:49;12.13;;;8.00;;
16460;SDS011;8341;42.048;24.650;2023-07-22T11:59:16;14.40;;;7.68;;
16460;SDS011;8341;42.048;24.650;2023-07-22T12:01:44;15.02;;;8.32;;
16460;SDS011;8341;42.048;24.650;2023-07-22T12:04:11;15.27;;;7.85;;
16460;SDS011;8341;42.048;24.650;2023-07-22T12:06:39;13.15;;;7.95;;
16460;SDS011;8341;42.048;24.650;2023-07-22T12:09:07;21.75;;;8.68;;
16460;SDS011;8341;42.048;24.650;2023-07-22T12:11:37;14.02;;;8.52;;
16460;SDS011;8341;42.048;24.650;2023-07-22T12:14:04;17.60;;;8.27;;
16460;SDS011;8341;42.048;24.650;2023-07-22T12:16:34;13.40;;;8.15;;
16460;SDS011;8341;42.048;24.650;2023-07-22T12:19:02;12.63;;;8.90;;
16460;SDS011;8341;42.048;24.650;2023-07-22T12:21:29;13.70;;;8.48;;
16460;SDS011;8341;42.048;24.650;2023-07-22T12:23:56;15.77;;;8.40;;
16460;SDS011;8341;42.048;24.650;2023-07-22T12:26:23;14.18;;;7.93;;
16460;SDS011;8341;42.048;24.650;2023-07-22T12:28:51;15.25;;;8.23;;
16460;SDS011;8341;42.048;24.650;2023-07-22T12:31:18;13.77;;;8.63;;
16460;SDS011;8341;42.048;24.650;2023-07-22T12:33:45;13.43;;;7.63;;
16460;SDS011;8341;42.048;24.650;2023-07-22T12:36:12;13.93;;;7.78;;
16460;SDS011;8341;42.048;24.650;2023-07-22T12:38:39;15.05;;;8.10;;
16460;SDS011;8341;42.048;24.650;2023-07-22T12:41:06;11.43;;;8.02;;
16460;SDS011;8341;42.048;24.650;2023-07-22T12:43:32;14.27;;;8.35;;
16460;SDS011;8341;42.048;24.650;2023-07-22T12:46:01;18.05;;;8.35;;
16460;SDS011;8341;42.048;24.650;2023-07-22T12:48:27;17.00;;;8.75;;
16460;SDS011;8341;42.048;24.650;2023-07-22T12:50:54;12.48;;;8.65;;
16460;SDS011;8341;42.048;24.650;2023-07-22T12:53:21;19.27;;;8.98;;
16460;SDS011;8341;42.048;24.650;2023-07-22T12:55:48;12.50;;;8.38;;
16460;SDS011;8341;42.048;24.650;2023-07-22T12:58:15;13.93;;;8.38;;
16460;SDS011;8341;42.048;24.650;2023-07-22T13:00:41;13.80;;;8.38;;
16460;SDS011;8341;42.048;24.650;2023-07-22T13:03:10;16.98;;;8.77;;
16460;SDS011;8341;42.048;24.650;2023-07-22T13:05:37;12.38;;;8.30;;
16460;SDS011;8341;42.048;24.650;2023-07-22T13:08:03;13.90;;;8.07;;
16460;SDS011;8341;42.048;24.650;2023-07-22T13:10:30;16.55;;;7.90;;
16460;SDS011;8341;42.048;24.650;2023-07-22T13:12:59;15.45;;;8.00;;
16460;SDS011;8341;42.048;24.650;2023-07-22T13:15:26;20.75;;;8.57;;
16460;SDS011;8341;42.048;24.650;2023-07-22T13:17:53;21.05;;;8.48;;
16460;SDS011;8341;42.048;24.650;2023-07-22T13:20:21;15.07;;;7.45;;
16460;SDS011;8341;42.048;24.650;2023-07-22T13:22:48;19.88;;;8.10;;
16460;SDS011;8341;42.048;24.650;2023-07-22T13:25:15;13.18;;;7.50;;
16460;SDS011;8341;42.048;24.650;2023-07-22T13:27:41;14.95;;;7.22;;
16460;SDS011;8341;42.048;24.650;2023-07-22T13:30:08;17.05;;;7.78;;
16460;SDS011;8341;42.048;24.650;2023-07-22T13:32:35;22.10;;;7.53;;
16460;SDS011;8341;42.048;24.650;2023-07-22T13:35:02;19.63;;;7.40;;
16460;SDS011;8341;42.048;24.650;2023-07-22T13:37:31;17.85;;;7.07;;
16460;SDS011;8341;42.048;24.650;2023-07-22T13:39:58;23.50;;;7.10;;
16460;SDS011;8341;42.048;24.650;2023-07-22T13:42:25;16.88;;;6.85;;
16460;SDS011;8341;42.048;24.650;2023-07-22T13:44:52;23.23;;;7.30;;
16460;SDS011;8341;42.048;24.650;2023-07-22T13:47:18;19.05;;;7.60;;
16460;SDS011;8341;42.048;24.650;2023-07-22T13:49:45;16.30;;;6.57;;
16460;SDS011;8341;42.048;24.650;2023-07-22T13:52:12;19.40;;;6.97;;
16460;SDS011;8341;42.048;24.650;2023-07-22T13:54:41;17.58;;;6.97;;
16460;SDS011;8341;42.048;24.650;2023-07-22T13:57:07;17.75;;;6.82;;
16460;SDS011;8341;42.048;24.650;2023-07-22T13:59:34;15.30;;;7.13;;
16460;SDS011;8341;42.048;24.650;2023-07-22T14:02:01;19.92;;;7.40;;
16460;SDS011;8341;42.048;24.650;2023-07-22T14:04:28;17.48;;;6.82;;
16460;SDS011;8341;42.048;24.650;2023-07-22T14:06:55;19.90;;;7.43;;
16460;SDS011;8341;42.048;24.650;2023-07-22T14:09:22;13.77;;;7.22;;
16460;SDS011;8341;42.048;24.650;2023-07-22T14:11:50;18.70;;;7.10;;
16460;SDS011;8341;42.048;24.650;2023-07-22T14:14:17;18.20;;;7.22;;
16460;SDS011;8341;42.048;24.650;2023-07-22T14:16:44;22.27;;;6.90;;
16460;SDS011;8341;42.048;24.650;2023-07-22T14:19:11;18.27;;;6.25;;
16460;SDS011;8341;42.048;24.650;2023-07-22T14:21:38;22.50;;;7.40;;
16460;SDS011;8341;42.048;24.650;2023-07-22T14:24:05;18.63;;;7.05;;
16460;SDS011;8341;42.048;24.650;2023-07-22T14:26:32;20.83;;;7.28;;
16460;SDS011;8341;42.048;24.650;2023-07-22T14:29:00;16.88;;;6.95;;
16460;SDS011;8341;42.048;24.650;2023-07-22T14:31:26;19.52;;;6.72;;
16460;SDS011;8341;42.048;24.650;2023-07-22T14:33:53;18.63;;;7.10;;
16460;SDS011;8341;42.048;24.650;2023-07-22T14:36:20;15.40;;;6.57;;
16460;SDS011;8341;42.048;24.650;2023-07-22T14:38:47;14.32;;;7.35;;